sensor_id;sensor_type;location;lat;lon;timestamp;pressure;altitude;pressure_sealevel;temperature;humidity
56514;BME280;62152;52.078;8.414;2023-03-19T00:00:19;99746.19;;;18.36;53.04
56514;BME280;62152;52.078;8.414;2023-03-19T00:04:20;99740.69;;;18.36;52.50
56514;BME280;62152;52.078;8.414;2023-03-19T00:08:21;99749.72;;;18.36;52.67
56514;BME280;62152;52.078;8.414;2023-03-19T00:12:23;99757.16;;;18.36;53.25
56514;BME280;62152;52.078;8.414;2023-03-19T00:16:24;99755.19;;;18.36;53.13
56514;BME280;62152;52.078;8.414;2023-03-19T00:20:25;99755.59;;;18.35;52.87
56514;BME280;62152;52.078;8.414;2023-03-19T00:24:26;99752.84;;;18.35;52.69
56514;BME280;62152;52.078;8.414;2023-03-19T00:28:28;99754.00;;;18.34;53.28
56514;BME280;62152;52.078;8.414;2023-03-19T00:32:29;99753.63;;;18.35;53.24
56514;BME280;62152;52.078;8.414;2023-03-19T00:36:30;99759.13;;;18.35;52.65
56514;BME280;62152;52.078;8.414;2023-03-19T00:40:31;99768.16;;;18.36;52.63
56514;BME280;62152;52.078;8.414;2023-03-19T00:44:34;99761.88;;;18.35;52.66
56514;BME280;62152;52.078;8.414;2023-03-19T00:48:37;99761.88;;;18.35;53.35
56514;BME280;62152;52.078;8.414;2023-03-19T00:52:37;99763.41;;;18.33;52.98
56514;BME280;62152;52.078;8.414;2023-03-19T00:56:38;99762.25;;;18.34;52.71
56514;BME280;62152;52.078;8.414;2023-03-19T01:00:41;99751.28;;;18.34;53.11
56514;BME280;62152;52.078;8.414;2023-03-19T01:04:43;99757.53;;;18.34;53.14
56514;BME280;62152;52.078;8.414;2023-03-19T01:08:44;99752.84;;;18.35;52.90
56514;BME280;62152;52.078;8.414;2023-03-19T01:12:45;99755.59;;;18.35;52.75
56514;BME280;62152;52.078;8.414;2023-03-19T01:16:47;99747.34;;;18.35;52.81
56514;BME280;62152;52.078;8.414;2023-03-19T01:20:48;99756.38;;;18.35;53.49
56514;BME280;62152;52.078;8.414;2023-03-19T01:24:49;99759.50;;;18.34;53.00
56514;BME280;62152;52.078;8.414;2023-03-19T01:28:50;99761.06;;;18.35;53.26
56514;BME280;62152;52.078;8.414;2023-03-19T01:32:55;99750.09;;;18.35;52.92
56514;BME280;62152;52.078;8.414;2023-03-19T01:37:20;99752.84;;;18.35;53.35
56514;BME280;62152;52.078;8.414;2023-03-19T01:41:22;99749.31;;;18.34;52.86
56514;BME280;62152;52.078;8.414;2023-03-19T01:45:30;99752.84;;;18.35;53.30
56514;BME280;62152;52.078;8.414;2023-03-19T01:49:54;99747.75;;;18.33;53.37
56514;BME280;62152;52.078;8.414;2023-03-19T01:53:59;99765.00;;;18.34;53.13
56514;BME280;62152;52.078;8.414;2023-03-19T01:58:17;99760.28;;;18.34;53.23
56514;BME280;62152;52.078;8.414;2023-03-19T02:02:48;99761.47;;;18.33;53.28
56514;BME280;62152;52.078;8.414;2023-03-19T02:07:15;99756.75;;;18.34;53.27
56514;BME280;62152;52.078;8.414;2023-03-19T02:11:18;99752.84;;;18.35;53.00
56514;BME280;62152;52.078;8.414;2023-03-19T02:15:20;99751.28;;;18.34;52.83
56514;BME280;62152;52.078;8.414;2023-03-19T02:19:30;99757.16;;;18.36;52.96
56514;BME280;62152;52.078;8.414;2023-03-19T02:23:48;99751.28;;;18.34;53.00
56514;BME280;62152;52.078;8.414;2023-03-19T02:28:12;99758.34;;;18.35;52.96
56514;BME280;62152;52.078;8.414;2023-03-19T02:32:24;99749.31;;;18.34;53.10
56514;BME280;62152;52.078;8.414;2023-03-19T02:36:31;99749.31;;;18.34;53.30
56514;BME280;62152;52.078;8.414;2023-03-19T02:40:40;99747.34;;;18.35;52.73
56514;BME280;62152;52.078;8.414;2023-03-19T02:44:48;99745.78;;;18.34;53.24
56514;BME280;62152;52.078;8.414;2023-03-19T02:48:49;99747.34;;;18.35;52.92
56514;BME280;62152;52.078;8.414;2023-03-19T02:52:50;99753.63;;;18.35;53.24
56514;BME280;62152;52.078;8.414;2023-03-19T02:56:51;99752.06;;;18.34;53.25
56514;BME280;62152;52.078;8.414;2023-03-19T03:00:53;99752.84;;;18.35;52.91
56514;BME280;62152;52.078;8.414;2023-03-19T03:04:54;99752.06;;;18.34;52.97
56514;BME280;62152;52.078;8.414;2023-03-19T03:08:56;99754.81;;;18.34;53.50
56514;BME280;62152;52.078;8.414;2023-03-19T03:12:57;99755.59;;;18.35;53.12
56514;BME280;62152;52.078;8.414;2023-03-19T03:17:00;99757.53;;;18.34;53.33
56514;BME280;62152;52.078;8.414;2023-03-19T03:21:01;99749.31;;;18.34;53.19
56514;BME280;62152;52.078;8.414;2023-03-19T03:25:03;99764.63;;;18.35;53.57
56514;BME280;62152;52.078;8.414;2023-03-19T03:29:04;99752.06;;;18.34;53.14
56514;BME280;62152;52.078;8.414;2023-03-19T03:33:07;99757.16;;;18.36;53.13
56514;BME280;62152;52.078;8.414;2023-03-19T03:37:08;99758.72;;;18.37;53.35
56514;BME280;62152;52.078;8.414;2023-03-19T03:41:09;99758.34;;;18.35;53.08
56514;BME280;62152;52.078;8.414;2023-03-19T03:45:11;99762.66;;;18.36;53.65
56514;BME280;62152;52.078;8.414;2023-03-19T03:49:16;99766.56;;;18.35;53.54
56514;BME280;62152;52.078;8.414;2023-03-19T03:53:16;99766.56;;;18.35;53.20
56514;BME280;62152;52.078;8.414;2023-03-19T03:57:17;99765.00;;;18.34;53.04
56514;BME280;62152;52.078;8.414;2023-03-19T04:01:19;99769.31;;;18.35;53.18
56514;BME280;62152;52.078;8.414;2023-03-19T04:05:25;99762.25;;;18.34;53.75
56514;BME280;62152;52.078;8.414;2023-03-19T04:09:26;99759.50;;;18.34;53.36
56514;BME280;62152;52.078;8.414;2023-03-19T04:13:27;99763.81;;;18.35;53.23
56514;BME280;62152;52.078;8.414;2023-03-19T04:17:28;99761.06;;;18.35;53.08
56514;BME280;62152;52.078;8.414;2023-03-19T04:21:30;99763.03;;;18.34;53.42
56514;BME280;62152;52.078;8.414;2023-03-19T04:25:31;99763.81;;;18.35;53.57
56514;BME280;62152;52.078;8.414;2023-03-19T04:29:32;99761.06;;;18.35;53.18
56514;BME280;62152;52.078;8.414;2023-03-19T04:33:34;99761.06;;;18.35;53.87
56514;BME280;62152;52.078;8.414;2023-03-19T04:37:37;99757.16;;;18.36;53.69
56514;BME280;62152;52.078;8.414;2023-03-19T04:41:37;99757.94;;;18.33;53.61
56514;BME280;62152;52.078;8.414;2023-03-19T04:46:09;99756.38;;;18.35;53.41
56514;BME280;62152;52.078;8.414;2023-03-19T04:50:10;99761.06;;;18.35;53.14
56514;BME280;62152;52.078;8.414;2023-03-19T04:54:13;99757.53;;;18.34;53.77
56514;BME280;62152;52.078;8.414;2023-03-19T04:58:14;99763.81;;;18.35;53.57
56514;BME280;62152;52.078;8.414;2023-03-19T05:02:16;99760.28;;;18.34;53.74
56514;BME280;62152;52.078;8.414;2023-03-19T05:06:17;99761.06;;;18.35;53.93
56514;BME280;62152;52.078;8.414;2023-03-19T05:10:20;99765.41;;;18.36;53.82
56514;BME280;62152;52.078;8.414;2023-03-19T05:14:21;99769.31;;;18.35;53.90
56514;BME280;62152;52.078;8.414;2023-03-19T05:18:41;99763.03;;;18.34;53.60
56514;BME280;62152;52.078;8.414;2023-03-19T05:22:42;99769.31;;;18.35;53.80
56514;BME280;62152;52.078;8.414;2023-03-19T05:26:44;99768.53;;;18.34;53.89
56514;BME280;62152;52.078;8.414;2023-03-19T05:30:51;99773.22;;;18.34;53.46
56514;BME280;62152;52.078;8.414;2023-03-19T05:35:07;99762.59;;;18.32;53.41
56514;BME280;62152;52.078;8.414;2023-03-19T05:39:10;99781.09;;;18.35;53.59
56514;BME280;62152;52.078;8.414;2023-03-19T05:43:15;99780.69;;;18.33;53.36
56514;BME280;62152;52.078;8.414;2023-03-19T05:47:16;99791.28;;;18.35;53.77
56514;BME280;62152;52.078;8.414;2023-03-19T05:51:22;99788.53;;;18.35;53.95
56514;BME280;62152;52.078;8.414;2023-03-19T05:55:23;99794.81;;;18.35;53.96
56514;BME280;62152;52.078;8.414;2023-03-19T05:59:34;99804.22;;;18.34;53.92
56514;BME280;62152;52.078;8.414;2023-03-19T06:03:58;99804.22;;;18.34;53.57
56514;BME280;62152;52.078;8.414;2023-03-19T06:07:59;99797.94;;;18.34;53.84
56514;BME280;62152;52.078;8.414;2023-03-19T06:12:19;99806.97;;;18.34;53.59
56514;BME280;62152;52.078;8.414;2023-03-19T06:16:48;99810.50;;;18.35;54.23
56514;BME280;62152;52.078;8.414;2023-03-19T06:20:49;99811.66;;;18.34;53.51
56514;BME280;62152;52.078;8.414;2023-03-19T06:24:51;99817.94;;;18.34;53.64
56514;BME280;62152;52.078;8.414;2023-03-19T06:28:53;99808.94;;;18.34;53.50
56514;BME280;62152;52.078;8.414;2023-03-19T06:32:56;99803.44;;;18.34;53.89
56514;BME280;62152;52.078;8.414;2023-03-19T06:36:57;99816.00;;;18.35;53.59
56514;BME280;62152;52.078;8.414;2023-03-19T06:40:58;99815.19;;;18.34;54.17
56514;BME280;62152;52.078;8.414;2023-03-19T06:44:59;99823.06;;;18.36;53.66
56514;BME280;62152;52.078;8.414;2023-03-19T06:49:01;99816.78;;;18.35;53.82
56514;BME280;62152;52.078;8.414;2023-03-19T06:53:02;99810.88;;;18.33;53.73
56514;BME280;62152;52.078;8.414;2023-03-19T06:57:03;99819.47;;;18.31;53.46
56514;BME280;62152;52.078;8.414;2023-03-19T07:01:04;99830.44;;;18.31;53.99
56514;BME280;62152;52.078;8.414;2023-03-19T07:05:07;99826.13;;;18.30;53.54
56514;BME280;62152;52.078;8.414;2023-03-19T07:09:08;99831.63;;;18.30;53.47
56514;BME280;62152;52.078;8.414;2023-03-19T07:13:09;99830.84;;;18.30;53.81
56514;BME280;62152;52.078;8.414;2023-03-19T07:17:10;99842.59;;;18.30;53.84
56514;BME280;62152;52.078;8.414;2023-03-19T07:21:12;99858.28;;;18.30;53.31
56514;BME280;62152;52.078;8.414;2023-03-19T07:25:13;99859.06;;;18.30;53.41
56514;BME280;62152;52.078;8.414;2023-03-19T07:29:14;99855.53;;;18.30;53.54
56514;BME280;62152;52.078;8.414;2023-03-19T07:33:15;99860.25;;;18.29;53.04
56514;BME280;62152;52.078;8.414;2023-03-19T07:37:17;99864.56;;;18.30;53.03
56514;BME280;62152;52.078;8.414;2023-03-19T07:41:18;99861.81;;;18.30;53.11
56514;BME280;62152;52.078;8.414;2023-03-19T07:45:19;99864.56;;;18.30;53.21
56514;BME280;62152;52.078;8.414;2023-03-19T07:49:20;99872.41;;;18.32;53.27
56514;BME280;62152;52.078;8.414;2023-03-19T07:53:23;99875.16;;;18.32;52.70
56514;BME280;62152;52.078;8.414;2023-03-19T07:57:24;99873.25;;;18.33;53.27
56514;BME280;62152;52.078;8.414;2023-03-19T08:01:25;99881.91;;;18.04;52.52
56514;BME280;62152;52.078;8.414;2023-03-19T08:05:25;99878.97;;;17.90;52.47
56514;BME280;62152;52.078;8.414;2023-03-19T08:09:28;99875.44;;;17.90;52.35
56514;BME280;62152;52.078;8.414;2023-03-19T08:13:29;99882.38;;;17.80;52.16
56514;BME280;62152;52.078;8.414;2023-03-19T08:17:30;99889.50;;;17.85;51.24
56514;BME280;62152;52.078;8.414;2023-03-19T08:21:31;99887.03;;;18.06;51.58
56514;BME280;62152;52.078;8.414;2023-03-19T08:25:33;99891.47;;;18.18;51.62
56514;BME280;62152;52.078;8.414;2023-03-19T08:29:34;99893.09;;;18.22;51.37
56514;BME280;62152;52.078;8.414;2023-03-19T08:33:35;99898.22;;;18.24;51.37
56514;BME280;62152;52.078;8.414;2023-03-19T08:37:36;99901.75;;;18.24;51.80
56514;BME280;62152;52.078;8.414;2023-03-19T08:41:39;99903.75;;;18.27;51.42
56514;BME280;62152;52.078;8.414;2023-03-19T08:45:40;99900.25;;;18.30;51.66
56514;BME280;62152;52.078;8.414;2023-03-19T08:49:41;99910.91;;;18.36;51.40
56514;BME280;62152;52.078;8.414;2023-03-19T08:53:41;99907.78;;;18.37;51.60
56514;BME280;62152;52.078;8.414;2023-03-19T08:57:43;99910.16;;;18.39;51.65
56514;BME280;62152;52.078;8.414;2023-03-19T09:01:44;99908.22;;;18.39;51.39
56514;BME280;62152;52.078;8.414;2023-03-19T09:05:50;99914.84;;;18.38;51.46
56514;BME280;62152;52.078;8.414;2023-03-19T09:09:51;99909.75;;;18.37;51.79
56514;BME280;62152;52.078;8.414;2023-03-19T09:13:53;99903.06;;;18.34;51.62
56514;BME280;62152;52.078;8.414;2023-03-19T09:17:54;99917.56;;;18.35;51.65
56514;BME280;62152;52.078;8.414;2023-03-19T09:21:55;99918.75;;;18.34;52.03
56514;BME280;62152;52.078;8.414;2023-03-19T09:25:56;99927.00;;;18.37;51.54
56514;BME280;62152;52.078;8.414;2023-03-19T09:29:58;99925.50;;;18.40;51.44
56514;BME280;62152;52.078;8.414;2023-03-19T09:33:59;99926.63;;;18.39;51.61
56514;BME280;62152;52.078;8.414;2023-03-19T09:38:00;99932.50;;;18.37;52.11
56514;BME280;62152;52.078;8.414;2023-03-19T09:42:14;99934.53;;;18.44;52.06
56514;BME280;62152;52.078;8.414;2023-03-19T09:46:35;99934.69;;;18.54;53.27
56514;BME280;62152;52.078;8.414;2023-03-19T09:50:37;99926.06;;;18.56;53.09
56514;BME280;62152;52.078;8.414;2023-03-19T09:54:43;99939.03;;;18.59;53.21
56514;BME280;62152;52.078;8.414;2023-03-19T09:58:46;99934.69;;;18.58;53.11
56514;BME280;62152;52.078;8.414;2023-03-19T10:02:53;99948.88;;;18.60;53.62
56514;BME280;62152;52.078;8.414;2023-03-19T10:07:14;99948.91;;;18.64;53.50
56514;BME280;62152;52.078;8.414;2023-03-19T10:11:44;99952.06;;;18.66;53.03
56514;BME280;62152;52.078;8.414;2023-03-19T10:16:00;99950.13;;;18.66;53.36
56514;BME280;62152;52.078;8.414;2023-03-19T10:20:14;99952.06;;;18.66;53.26
56514;BME280;62152;52.078;8.414;2023-03-19T10:24:23;99944.97;;;18.65;53.49
56514;BME280;62152;52.078;8.414;2023-03-19T10:28:29;99946.94;;;18.64;52.74
56514;BME280;62152;52.078;8.414;2023-03-19T10:32:38;99949.78;;;18.68;52.53
56514;BME280;62152;52.078;8.414;2023-03-19T10:36:43;99952.53;;;18.71;52.88
56514;BME280;62152;52.078;8.414;2023-03-19T10:40:55;99962.34;;;18.72;52.17
56514;BME280;62152;52.078;8.414;2023-03-19T10:45:04;99960.78;;;18.71;52.38
56514;BME280;62152;52.078;8.414;2023-03-19T10:49:17;99964.28;;;18.68;52.61
56514;BME280;62152;52.078;8.414;2023-03-19T10:53:30;99963.84;;;18.66;52.17
56514;BME280;62152;52.078;8.414;2023-03-19T10:57:33;99961.09;;;18.66;52.18
56514;BME280;62152;52.078;8.414;2023-03-19T11:01:37;99967.34;;;18.63;52.04
56514;BME280;62152;52.078;8.414;2023-03-19T11:05:39;99975.56;;;18.63;52.19
56514;BME280;62152;52.078;8.414;2023-03-19T11:09:45;99977.59;;;18.66;52.75
56514;BME280;62152;52.078;8.414;2023-03-19T11:13:48;99984.69;;;18.67;52.41
56514;BME280;62152;52.078;8.414;2023-03-19T11:17:55;99977.16;;;18.64;52.47
56514;BME280;62152;52.078;8.414;2023-03-19T11:22:02;99984.22;;;18.65;51.96
56514;BME280;62152;52.078;8.414;2023-03-19T11:26:18;99992.47;;;18.65;52.34
56514;BME280;62152;52.078;8.414;2023-03-19T11:30:19;99987.44;;;18.67;52.16
56514;BME280;62152;52.078;8.414;2023-03-19T11:34:30;99991.31;;;18.66;52.47
56514;BME280;62152;52.078;8.414;2023-03-19T11:38:53;99980.00;;;18.68;51.96
56514;BME280;62152;52.078;8.414;2023-03-19T11:47:48;99986.66;;;18.67;52.21
56514;BME280;62152;52.078;8.414;2023-03-19T11:52:06;99974.84;;;18.66;52.04
56514;BME280;62152;52.078;8.414;2023-03-19T11:56:20;99976.44;;;18.67;52.55
56514;BME280;62152;52.078;8.414;2023-03-19T12:00:45;99973.25;;;18.65;52.67
56514;BME280;62152;52.078;8.414;2023-03-19T12:04:59;99972.09;;;18.66;52.66
56514;BME280;62152;52.078;8.414;2023-03-19T12:09:14;99978.03;;;18.68;51.88
56514;BME280;62152;52.078;8.414;2023-03-19T12:13:37;99980.00;;;18.68;52.21
56514;BME280;62152;52.078;8.414;2023-03-19T12:18:00;99981.94;;;18.67;51.83
56514;BME280;62152;52.078;8.414;2023-03-19T12:22:21;99969.78;;;18.68;52.23
56514;BME280;62152;52.078;8.414;2023-03-19T12:26:36;99970.19;;;18.70;52.19
56514;BME280;62152;52.078;8.414;2023-03-19T12:31:07;99978.44;;;18.70;52.11
56514;BME280;62152;52.078;8.414;2023-03-19T12:35:30;99974.91;;;18.70;51.85
56514;BME280;62152;52.078;8.414;2023-03-19T12:39:39;99972.56;;;18.72;51.98
56514;BME280;62152;52.078;8.414;2023-03-19T12:43:51;99974.13;;;18.73;52.30
56514;BME280;62152;52.078;8.414;2023-03-19T12:48:01;99971.78;;;18.71;52.07
56514;BME280;62152;52.078;8.414;2023-03-19T12:52:17;99971.78;;;18.71;52.06
56514;BME280;62152;52.078;8.414;2023-03-19T12:56:30;99967.50;;;18.74;51.95
56514;BME280;62152;52.078;8.414;2023-03-19T13:00:44;99962.34;;;18.72;52.05
56514;BME280;62152;52.078;8.414;2023-03-19T13:04:54;99958.03;;;18.71;52.35
56514;BME280;62152;52.078;8.414;2023-03-19T13:09:04;99964.31;;;18.72;51.75
56514;BME280;62152;52.078;8.414;2023-03-19T13:13:32;99958.81;;;18.72;51.97
56514;BME280;62152;52.078;8.414;2023-03-19T13:17:42;99964.75;;;18.74;52.03
56514;BME280;62152;52.078;8.414;2023-03-19T13:21:57;99966.69;;;18.73;51.90
56514;BME280;62152;52.078;8.414;2023-03-19T13:26:09;99968.28;;;18.74;52.00
56514;BME280;62152;52.078;8.414;2023-03-19T13:30:17;99960.03;;;18.74;51.90
56514;BME280;62152;52.078;8.414;2023-03-19T13:34:24;99953.75;;;18.74;51.94
56514;BME280;62152;52.078;8.414;2023-03-19T13:38:36;99953.75;;;18.74;51.79
56514;BME280;62152;52.078;8.414;2023-03-19T13:42:41;99950.59;;;18.72;51.76
56514;BME280;62152;52.078;8.414;2023-03-19T13:46:41;99959.25;;;18.74;51.87
56514;BME280;62152;52.078;8.414;2023-03-19T13:50:53;99945.53;;;18.74;52.09
56514;BME280;62152;52.078;8.414;2023-03-19T13:55:29;99947.09;;;18.75;51.66
56514;BME280;62152;52.078;8.414;2023-03-19T13:59:34;99950.63;;;18.75;51.65
56514;BME280;62152;52.078;8.414;2023-03-19T14:03:40;99949.09;;;18.78;51.77
56514;BME280;62152;52.078;8.414;2023-03-19T14:07:54;99953.00;;;18.77;52.27
56514;BME280;62152;52.078;8.414;2023-03-19T14:12:08;99954.16;;;18.76;51.99
56514;BME280;62152;52.078;8.414;2023-03-19T14:16:16;99946.31;;;18.74;52.11
56514;BME280;62152;52.078;8.414;2023-03-19T14:20:24;99950.19;;;18.73;51.73
56514;BME280;62152;52.078;8.414;2023-03-19T14:24:33;99942.78;;;18.74;52.04
56514;BME280;62152;52.078;8.414;2023-03-19T14:28:48;99941.97;;;18.73;51.80
56514;BME280;62152;52.078;8.414;2023-03-19T14:32:55;99947.44;;;18.73;52.10
56514;BME280;62152;52.078;8.414;2023-03-19T14:37:01;99941.97;;;18.73;51.95
56514;BME280;62152;52.078;8.414;2023-03-19T14:41:14;99944.72;;;18.73;51.76
56514;BME280;62152;52.078;8.414;2023-03-19T14:45:40;99941.97;;;18.73;51.45
56514;BME280;62152;52.078;8.414;2023-03-19T14:50:15;99939.59;;;18.72;51.76
56514;BME280;62152;52.078;8.414;2023-03-19T14:54:36;99947.84;;;18.72;52.01
56514;BME280;62152;52.078;8.414;2023-03-19T14:58:52;99939.22;;;18.73;51.71
56514;BME280;62152;52.078;8.414;2023-03-19T15:02:55;99945.09;;;18.72;51.84
56514;BME280;62152;52.078;8.414;2023-03-19T15:06:59;99945.09;;;18.72;52.37
56514;BME280;62152;52.078;8.414;2023-03-19T15:11:17;99944.31;;;18.71;52.23
56514;BME280;62152;52.078;8.414;2023-03-19T15:15:38;99945.88;;;18.72;51.89
56514;BME280;62152;52.078;8.414;2023-03-19T15:19:57;99954.91;;;18.73;51.87
56514;BME280;62152;52.078;8.414;2023-03-19T15:24:01;99963.94;;;18.73;51.98
56514;BME280;62152;52.078;8.414;2023-03-19T15:28:05;99965.91;;;18.73;52.09
56514;BME280;62152;52.078;8.414;2023-03-19T15:32:07;99958.03;;;18.71;52.33
56514;BME280;62152;52.078;8.414;2023-03-19T15:36:14;99965.50;;;18.71;52.16
56514;BME280;62152;52.078;8.414;2023-03-19T15:40:20;99963.13;;;18.69;51.62
56514;BME280;62152;52.078;8.414;2023-03-19T15:44:29;99969.41;;;18.70;51.93
56514;BME280;62152;52.078;8.414;2023-03-19T15:48:40;99977.25;;;18.68;51.92
56514;BME280;62152;52.078;8.414;2023-03-19T15:52:53;99977.25;;;18.68;51.96
56514;BME280;62152;52.078;8.414;2023-03-19T15:56:58;99982.75;;;18.68;52.14
56514;BME280;62152;52.078;8.414;2023-03-19T16:01:00;99982.75;;;18.68;52.07
56514;BME280;62152;52.078;8.414;2023-03-19T16:05:01;99987.75;;;18.66;51.91
56514;BME280;62152;52.078;8.414;2023-03-19T16:09:22;99988.94;;;18.65;51.90
56514;BME280;62152;52.078;8.414;2023-03-19T16:13:28;99994.44;;;18.65;52.08
56514;BME280;62152;52.078;8.414;2023-03-19T16:17:33;99992.84;;;18.64;51.88
56514;BME280;62152;52.078;8.414;2023-03-19T16:21:37;99999.50;;;18.63;52.33
56514;BME280;62152;52.078;8.414;2023-03-19T16:25:43;100010.13;;;18.64;52.43
56514;BME280;62152;52.078;8.414;2023-03-19T16:29:47;100005.41;;;18.65;52.42
56514;BME280;62152;52.078;8.414;2023-03-19T16:33:50;100015.22;;;18.66;52.16
56514;BME280;62152;52.078;8.414;2023-03-19T16:37:52;100017.97;;;18.66;52.11
56514;BME280;62152;52.078;8.414;2023-03-19T16:42:25;100021.91;;;18.65;52.36
56514;BME280;62152;52.078;8.414;2023-03-19T16:46:28;100024.22;;;18.63;51.99
56514;BME280;62152;52.078;8.414;2023-03-19T16:50:31;100030.53;;;18.63;52.48
56514;BME280;62152;52.078;8.414;2023-03-19T16:54:34;100026.22;;;18.66;52.32
56514;BME280;62152;52.078;8.414;2023-03-19T16:58:39;100027.47;;;18.68;52.85
56514;BME280;62152;52.078;8.414;2023-03-19T17:02:42;100036.13;;;18.70;52.71
56514;BME280;62152;52.078;8.414;2023-03-19T17:06:43;100038.56;;;18.75;52.23
56514;BME280;62152;52.078;8.414;2023-03-19T17:10:46;100033.88;;;18.79;52.48
56514;BME280;62152;52.078;8.414;2023-03-19T17:14:51;100041.31;;;18.79;52.84
56514;BME280;62152;52.078;8.414;2023-03-19T17:18:53;100040.44;;;18.68;52.27
56514;BME280;62152;52.078;8.414;2023-03-19T17:22:55;100040.44;;;18.68;52.00
56514;BME280;62152;52.078;8.414;2023-03-19T17:26:57;100045.94;;;18.71;52.44
56514;BME280;62152;52.078;8.414;2023-03-19T17:31:01;100049.91;;;18.74;52.41
56514;BME280;62152;52.078;8.414;2023-03-19T17:35:02;100047.97;;;18.74;52.26
56514;BME280;62152;52.078;8.414;2023-03-19T17:39:04;100050.72;;;18.74;52.42
56514;BME280;62152;52.078;8.414;2023-03-19T17:43:08;100071.56;;;18.79;52.48
56514;BME280;62152;52.078;8.414;2023-03-19T17:47:14;100070.44;;;18.83;52.47
56514;BME280;62152;52.078;8.414;2023-03-19T17:51:16;100070.44;;;18.83;52.37
56514;BME280;62152;52.078;8.414;2023-03-19T17:55:20;100073.59;;;18.85;52.43
56514;BME280;62152;52.078;8.414;2023-03-19T17:59:23;100069.28;;;18.84;52.67
56514;BME280;62152;52.078;8.414;2023-03-19T18:03:27;100078.63;;;18.80;52.69
56514;BME280;62152;52.078;8.414;2023-03-19T18:07:31;100081.72;;;18.75;52.66
56514;BME280;62152;52.078;8.414;2023-03-19T18:11:31;100080.50;;;18.72;52.67
56514;BME280;62152;52.078;8.414;2023-03-19T18:15:33;100090.28;;;18.70;52.91
56514;BME280;62152;52.078;8.414;2023-03-19T18:19:37;100098.91;;;18.68;52.66
56514;BME280;62152;52.078;8.414;2023-03-19T18:23:38;100109.44;;;18.66;52.78
56514;BME280;62152;52.078;8.414;2023-03-19T18:27:39;100105.09;;;18.65;53.02
56514;BME280;62152;52.078;8.414;2023-03-19T18:31:42;100110.97;;;18.64;52.65
56514;BME280;62152;52.078;8.414;2023-03-19T18:35:46;100113.72;;;18.64;53.29
56514;BME280;62152;52.078;8.414;2023-03-19T18:39:47;100122.34;;;18.62;52.72
56514;BME280;62152;52.078;8.414;2023-03-19T18:43:48;100126.25;;;18.61;52.56
56514;BME280;62152;52.078;8.414;2023-03-19T18:47:50;100131.75;;;18.61;52.62
56514;BME280;62152;52.078;8.414;2023-03-19T18:51:53;100132.09;;;18.59;52.71
56514;BME280;62152;52.078;8.414;2023-03-19T18:55:55;100142.28;;;18.59;52.51
56514;BME280;62152;52.078;8.414;2023-03-19T18:59:56;100135.22;;;18.58;52.49
56514;BME280;62152;52.078;8.414;2023-03-19T19:03:57;100143.84;;;18.56;52.61
56514;BME280;62152;52.078;8.414;2023-03-19T19:08:02;100146.56;;;18.56;53.09
56514;BME280;62152;52.078;8.414;2023-03-19T19:12:03;100150.50;;;18.55;53.01
56514;BME280;62152;52.078;8.414;2023-03-19T19:16:05;100150.50;;;18.55;52.49
56514;BME280;62152;52.078;8.414;2023-03-19T19:20:14;100162.28;;;18.56;52.62
56514;BME280;62152;52.078;8.414;2023-03-19T19:24:17;100165.00;;;18.56;53.17
56514;BME280;62152;52.078;8.414;2023-03-19T19:28:20;100170.88;;;18.54;52.79
56514;BME280;62152;52.078;8.414;2023-03-19T19:32:25;100175.59;;;18.54;52.84
56514;BME280;62152;52.078;8.414;2023-03-19T19:36:27;100178.34;;;18.54;52.58
56514;BME280;62152;52.078;8.414;2023-03-19T19:40:30;100185.78;;;18.53;52.85
56514;BME280;62152;52.078;8.414;2023-03-19T19:44:31;100183.03;;;18.53;52.57
56514;BME280;62152;52.078;8.414;2023-03-19T19:48:32;100189.66;;;18.52;53.04
56514;BME280;62152;52.078;8.414;2023-03-19T19:52:33;100192.41;;;18.52;53.04
56514;BME280;62152;52.078;8.414;2023-03-19T19:56:35;100199.88;;;18.52;53.03
56514;BME280;62152;52.078;8.414;2023-03-19T20:00:36;100194.38;;;18.52;52.78
56514;BME280;62152;52.078;8.414;2023-03-19T20:04:37;100209.28;;;18.51;52.69
56514;BME280;62152;52.078;8.414;2023-03-19T20:08:38;100212.00;;;18.51;53.29
56514;BME280;62152;52.078;8.414;2023-03-19T20:12:43;100218.28;;;18.51;52.68
56514;BME280;62152;52.078;8.414;2023-03-19T20:16:45;100220.25;;;18.51;52.83
56514;BME280;62152;52.078;8.414;2023-03-19T20:20:46;100219.47;;;18.50;52.92
56514;BME280;62152;52.078;8.414;2023-03-19T20:24:47;100226.91;;;18.50;53.23
56514;BME280;62152;52.078;8.414;2023-03-19T20:28:49;100235.16;;;18.50;53.13
56514;BME280;62152;52.078;8.414;2023-03-19T20:32:51;100239.84;;;18.49;53.03
56514;BME280;62152;52.078;8.414;2023-03-19T20:36:52;100242.19;;;18.47;52.99
56514;BME280;62152;52.078;8.414;2023-03-19T20:40:55;100241.03;;;18.48;53.20
56514;BME280;62152;52.078;8.414;2023-03-19T20:44:58;100242.97;;;18.48;52.67
56514;BME280;62152;52.078;8.414;2023-03-19T20:48:59;100242.97;;;18.48;52.77
56514;BME280;62152;52.078;8.414;2023-03-19T20:53:00;100249.63;;;18.47;52.63
56514;BME280;62152;52.078;8.414;2023-03-19T20:57:00;100247.69;;;18.47;52.54
56514;BME280;62152;52.078;8.414;2023-03-19T21:01:03;100254.34;;;18.46;53.31
56514;BME280;62152;52.078;8.414;2023-03-19T21:05:05;100256.72;;;18.48;52.85
56514;BME280;62152;52.078;8.414;2023-03-19T21:09:09;100257.88;;;18.47;52.86
56514;BME280;62152;52.078;8.414;2023-03-19T21:13:13;100264.16;;;18.47;53.07
56514;BME280;62152;52.078;8.414;2023-03-19T21:17:17;100273.19;;;18.48;52.67
56514;BME280;62152;52.078;8.414;2023-03-19T21:21:25;100273.56;;;18.46;52.75
56514;BME280;62152;52.078;8.414;2023-03-19T21:25:30;100270.00;;;18.46;53.08
56514;BME280;62152;52.078;8.414;2023-03-19T21:29:32;100268.06;;;18.46;53.18
56514;BME280;62152;52.078;8.414;2023-03-19T21:33:34;100281.78;;;18.46;52.69
56514;BME280;62152;52.078;8.414;2023-03-19T21:37:35;100279.41;;;18.45;53.11
56514;BME280;62152;52.078;8.414;2023-03-19T21:41:36;100287.63;;;18.45;53.16